sensor_id;sensor_type;location;lat;lon;timestamp;P1;durP1;ratioP1;P2;durP2;ratioP2
69910;SDS011;63555;49.920;17.868;2023-05-16T00:01:37;4.53;;;3.13;;
69910;SDS011;63555;49.920;17.868;2023-05-16T00:06:38;4.47;;;2.83;;
69910;SDS011;63555;49.920;17.868;2023-05-16T00:11:38;5.50;;;3.17;;
69910;SDS011;63555;49.920;17.868;2023-05-16T00:16:39;6.47;;;3.93;;
69910;SDS011;63555;49.920;17.868;2023-05-16T00:21:40;5.18;;;2.72;;
69910;SDS011;63555;49.920;17.868;2023-05-16T00:26:41;5.63;;;3.77;;
69910;SDS011;63555;49.920;17.868;2023-05-16T00:31:41;5.90;;;3.40;;
69910;SDS011;63555;49.920;17.868;2023-05-16T00:36:42;5.63;;;3.50;;
69910;SDS011;63555;49.920;17.868;2023-05-16T00:41:43;5.70;;;3.23;;
69910;SDS011;63555;49.920;17.868;2023-05-16T00:46:43;5.95;;;3.20;;
69910;SDS011;63555;49.920;17.868;2023-05-16T00:51:44;4.90;;;3.10;;
69910;SDS011;63555;49.920;17.868;2023-05-16T00:56:44;5.33;;;3.20;;
69910;SDS011;63555;49.920;17.868;2023-05-16T01:01:45;6.20;;;3.43;;
69910;SDS011;63555;49.920;17.868;2023-05-16T01:06:46;6.90;;;3.40;;
69910;SDS011;63555;49.920;17.868;2023-05-16T01:17:07;7.07;;;4.20;;
69910;SDS011;63555;49.920;17.868;2023-05-16T01:27:47;6.97;;;4.07;;
69910;SDS011;63555;49.920;17.868;2023-05-16T01:32:48;5.93;;;3.97;;
69910;SDS011;63555;49.920;17.868;2023-05-16T01:37:49;8.40;;;4.03;;
69910;SDS011;63555;49.920;17.868;2023-05-16T01:42:56;7.43;;;4.50;;
69910;SDS011;63555;49.920;17.868;2023-05-16T01:53:16;5.97;;;4.05;;
69910;SDS011;63555;49.920;17.868;2023-05-16T01:58:20;7.73;;;4.83;;
69910;SDS011;63555;49.920;17.868;2023-05-16T02:03:24;8.35;;;5.05;;
69910;SDS011;63555;49.920;17.868;2023-05-16T02:08:24;8.07;;;4.97;;
69910;SDS011;63555;49.920;17.868;2023-05-16T02:13:26;7.47;;;4.33;;
69910;SDS011;63555;49.920;17.868;2023-05-16T02:18:27;10.03;;;4.80;;
69910;SDS011;63555;49.920;17.868;2023-05-16T02:23:27;10.33;;;5.47;;
69910;SDS011;63555;49.920;17.868;2023-05-16T02:28:27;8.53;;;5.00;;
69910;SDS011;63555;49.920;17.868;2023-05-16T02:33:28;11.55;;;6.05;;
69910;SDS011;63555;49.920;17.868;2023-05-16T02:38:28;9.27;;;5.27;;
69910;SDS011;63555;49.920;17.868;2023-05-16T02:43:29;8.97;;;5.70;;
69910;SDS011;63555;49.920;17.868;2023-05-16T02:48:29;15.17;;;8.50;;
69910;SDS011;63555;49.920;17.868;2023-05-16T02:53:30;11.50;;;6.80;;
69910;SDS011;63555;49.920;17.868;2023-05-16T02:58:30;11.67;;;7.47;;
69910;SDS011;63555;49.920;17.868;2023-05-16T03:03:30;12.83;;;6.90;;
69910;SDS011;63555;49.920;17.868;2023-05-16T03:08:32;9.27;;;5.40;;
69910;SDS011;63555;49.920;17.868;2023-05-16T03:13:33;11.90;;;4.63;;
69910;SDS011;63555;49.920;17.868;2023-05-16T03:18:33;7.17;;;4.50;;
69910;SDS011;63555;49.920;17.868;2023-05-16T03:23:33;9.00;;;4.83;;
69910;SDS011;63555;49.920;17.868;2023-05-16T03:28:34;8.70;;;4.87;;
69910;SDS011;63555;49.920;17.868;2023-05-16T03:33:34;10.95;;;5.40;;
69910;SDS011;63555;49.920;17.868;2023-05-16T03:38:35;11.83;;;6.80;;
69910;SDS011;63555;49.920;17.868;2023-05-16T03:43:35;11.57;;;6.30;;
69910;SDS011;63555;49.920;17.868;2023-05-16T03:48:36;11.20;;;5.87;;
69910;SDS011;63555;49.920;17.868;2023-05-16T03:53:36;11.80;;;6.30;;
69910;SDS011;63555;49.920;17.868;2023-05-16T03:58:37;10.50;;;6.10;;
69910;SDS011;63555;49.920;17.868;2023-05-16T04:03:37;12.97;;;7.13;;
69910;SDS011;63555;49.920;17.868;2023-05-16T04:08:37;12.70;;;7.37;;
69910;SDS011;63555;49.920;17.868;2023-05-16T04:13:39;15.77;;;7.47;;
69910;SDS011;63555;49.920;17.868;2023-05-16T04:18:40;13.77;;;7.10;;
69910;SDS011;63555;49.920;17.868;2023-05-16T04:23:40;11.87;;;7.57;;
69910;SDS011;63555;49.920;17.868;2023-05-16T04:28:41;15.20;;;8.87;;
69910;SDS011;63555;49.920;17.868;2023-05-16T04:33:41;14.27;;;8.97;;
69910;SDS011;63555;49.920;17.868;2023-05-16T04:38:41;15.50;;;9.40;;
69910;SDS011;63555;49.920;17.868;2023-05-16T04:43:43;16.30;;;9.20;;
69910;SDS011;63555;49.920;17.868;2023-05-16T04:48:43;17.33;;;9.33;;
69910;SDS011;63555;49.920;17.868;2023-05-16T04:53:44;15.90;;;9.13;;
69910;SDS011;63555;49.920;17.868;2023-05-16T04:58:44;15.33;;;8.63;;
69910;SDS011;63555;49.920;17.868;2023-05-16T05:03:45;19.90;;;9.03;;
69910;SDS011;63555;49.920;17.868;2023-05-16T05:08:45;11.65;;;7.40;;
69910;SDS011;63555;49.920;17.868;2023-05-16T05:13:45;13.98;;;8.13;;
69910;SDS011;63555;49.920;17.868;2023-05-16T05:18:46;12.40;;;6.67;;
69910;SDS011;63555;49.920;17.868;2023-05-16T05:23:46;10.43;;;6.45;;
69910;SDS011;63555;49.920;17.868;2023-05-16T05:28:48;9.90;;;6.53;;
69910;SDS011;63555;49.920;17.868;2023-05-16T05:33:49;15.93;;;7.50;;
69910;SDS011;63555;49.920;17.868;2023-05-16T05:38:49;10.07;;;6.93;;
69910;SDS011;63555;49.920;17.868;2023-05-16T05:43:50;13.32;;;7.05;;
69910;SDS011;63555;49.920;17.868;2023-05-16T05:48:50;65.37;;;11.87;;
69910;SDS011;63555;49.920;17.868;2023-05-16T05:53:51;15.17;;;7.30;;
69910;SDS011;63555;49.920;17.868;2023-05-16T05:58:52;13.50;;;6.97;;
69910;SDS011;63555;49.920;17.868;2023-05-16T06:03:52;8.83;;;5.93;;
69910;SDS011;63555;49.920;17.868;2023-05-16T06:08:52;9.90;;;5.67;;
69910;SDS011;63555;49.920;17.868;2023-05-16T06:13:53;10.10;;;5.53;;
69910;SDS011;63555;49.920;17.868;2023-05-16T06:18:53;9.93;;;5.90;;
69910;SDS011;63555;49.920;17.868;2023-05-16T06:23:53;8.83;;;6.00;;
69910;SDS011;63555;49.920;17.868;2023-05-16T06:28:54;11.77;;;5.33;;
69910;SDS011;63555;49.920;17.868;2023-05-16T06:33:54;10.23;;;5.23;;
69910;SDS011;63555;49.920;17.868;2023-05-16T06:38:55;8.77;;;5.80;;
69910;SDS011;63555;49.920;17.868;2023-05-16T06:43:55;8.20;;;5.20;;
69910;SDS011;63555;49.920;17.868;2023-05-16T06:48:56;9.40;;;5.40;;
69910;SDS011;63555;49.920;17.868;2023-05-16T06:53:56;9.53;;;5.30;;
69910;SDS011;63555;49.920;17.868;2023-05-16T06:58:56;8.30;;;5.23;;
69910;SDS011;63555;49.920;17.868;2023-05-16T07:03:57;8.13;;;5.37;;
69910;SDS011;63555;49.920;17.868;2023-05-16T07:08:57;5.53;;;4.20;;
69910;SDS011;63555;49.920;17.868;2023-05-16T07:13:58;5.90;;;4.27;;
69910;SDS011;63555;49.920;17.868;2023-05-16T07:18:58;8.13;;;4.30;;
69910;SDS011;63555;49.920;17.868;2023-05-16T07:23:58;6.60;;;4.10;;
69910;SDS011;63555;49.920;17.868;2023-05-16T07:28:59;5.70;;;4.13;;
69910;SDS011;63555;49.920;17.868;2023-05-16T07:34:01;7.33;;;4.80;;
69910;SDS011;63555;49.920;17.868;2023-05-16T07:39:02;12.83;;;4.80;;
69910;SDS011;63555;49.920;17.868;2023-05-16T07:44:02;7.60;;;4.50;;
69910;SDS011;63555;49.920;17.868;2023-05-16T07:49:02;7.07;;;4.67;;
69910;SDS011;63555;49.920;17.868;2023-05-16T07:54:03;9.23;;;5.30;;
69910;SDS011;63555;49.920;17.868;2023-05-16T07:59:03;11.93;;;4.60;;
69910;SDS011;63555;49.920;17.868;2023-05-16T08:04:04;248.80;;;10.82;;
69910;SDS011;63555;49.920;17.868;2023-05-16T08:09:05;110.57;;;8.20;;
69910;SDS011;63555;49.920;17.868;2023-05-16T08:14:05;11.50;;;4.77;;
69910;SDS011;63555;49.920;17.868;2023-05-16T08:19:05;7.23;;;5.13;;
69910;SDS011;63555;49.920;17.868;2023-05-16T08:24:06;25.87;;;5.83;;
69910;SDS011;63555;49.920;17.868;2023-05-16T08:29:07;15.17;;;4.97;;
69910;SDS011;63555;49.920;17.868;2023-05-16T08:34:07;14.70;;;4.73;;
69910;SDS011;63555;49.920;17.868;2023-05-16T08:39:09;16.30;;;5.25;;
69910;SDS011;63555;49.920;17.868;2023-05-16T08:44:10;7.60;;;4.40;;
69910;SDS011;63555;49.920;17.868;2023-05-16T08:49:12;6.32;;;4.38;;
69910;SDS011;63555;49.920;17.868;2023-05-16T08:54:13;9.50;;;5.13;;
69910;SDS011;63555;49.920;17.868;2023-05-16T08:59:14;8.90;;;6.70;;
69910;SDS011;63555;49.920;17.868;2023-05-16T09:04:15;9.53;;;6.23;;
69910;SDS011;63555;49.920;17.868;2023-05-16T09:09:15;11.27;;;6.85;;
69910;SDS011;63555;49.920;17.868;2023-05-16T09:14:16;25.53;;;5.90;;
69910;SDS011;63555;49.920;17.868;2023-05-16T09:19:17;17.37;;;5.77;;
69910;SDS011;63555;49.920;17.868;2023-05-16T09:24:17;25.03;;;5.80;;
69910;SDS011;63555;49.920;17.868;2023-05-16T09:29:24;16.52;;;5.88;;
69910;SDS011;63555;49.920;17.868;2023-05-16T09:34:26;201.00;;;10.82;;
69910;SDS011;63555;49.920;17.868;2023-05-16T09:39:26;26.60;;;5.30;;
69910;SDS011;63555;49.920;17.868;2023-05-16T09:44:27;7.07;;;5.33;;
69910;SDS011;63555;49.920;17.868;2023-05-16T09:49:27;10.70;;;6.43;;
69910;SDS011;63555;49.920;17.868;2023-05-16T09:54:31;45.80;;;8.30;;
69910;SDS011;63555;49.920;17.868;2023-05-16T09:59:38;53.15;;;8.73;;
69910;SDS011;63555;49.920;17.868;2023-05-16T10:04:39;22.80;;;5.70;;
69910;SDS011;63555;49.920;17.868;2023-05-16T10:09:39;13.33;;;5.57;;
69910;SDS011;63555;49.920;17.868;2023-05-16T10:14:40;8.20;;;5.73;;
69910;SDS011;63555;49.920;17.868;2023-05-16T10:19:43;11.00;;;5.82;;
69910;SDS011;63555;49.920;17.868;2023-05-16T10:29:54;15.03;;;6.03;;
69910;SDS011;63555;49.920;17.868;2023-05-16T10:34:57;17.33;;;6.07;;
69910;SDS011;63555;49.920;17.868;2023-05-16T10:40:00;9.87;;;6.10;;
69910;SDS011;63555;49.920;17.868;2023-05-16T10:55:38;8.47;;;6.20;;
69910;SDS011;63555;49.920;17.868;2023-05-16T11:00:39;10.93;;;6.28;;
69910;SDS011;63555;49.920;17.868;2023-05-16T11:05:39;9.27;;;6.90;;
69910;SDS011;63555;49.920;17.868;2023-05-16T11:10:40;11.97;;;6.30;;
69910;SDS011;63555;49.920;17.868;2023-05-16T11:15:40;9.67;;;6.30;;
69910;SDS011;63555;49.920;17.868;2023-05-16T11:20:41;8.50;;;6.13;;
69910;SDS011;63555;49.920;17.868;2023-05-16T11:25:42;8.02;;;5.70;;
69910;SDS011;63555;49.920;17.868;2023-05-16T11:30:45;9.43;;;5.60;;
69910;SDS011;63555;49.920;17.868;2023-05-16T11:36:00;7.07;;;5.53;;
69910;SDS011;63555;49.920;17.868;2023-05-16T11:41:05;9.15;;;5.90;;
69910;SDS011;63555;49.920;17.868;2023-05-16T11:46:09;16.97;;;6.43;;
69910;SDS011;63555;49.920;17.868;2023-05-16T11:51:11;10.05;;;6.70;;
69910;SDS011;63555;49.920;17.868;2023-05-16T11:56:13;15.95;;;7.05;;
69910;SDS011;63555;49.920;17.868;2023-05-16T12:01:14;9.27;;;7.17;;
69910;SDS011;63555;49.920;17.868;2023-05-16T12:06:14;9.30;;;7.07;;
69910;SDS011;63555;49.920;17.868;2023-05-16T12:11:15;9.97;;;7.27;;
69910;SDS011;63555;49.920;17.868;2023-05-16T12:16:16;12.20;;;7.80;;
69910;SDS011;63555;49.920;17.868;2023-05-16T12:21:16;13.30;;;7.80;;
69910;SDS011;63555;49.920;17.868;2023-05-16T12:26:22;12.13;;;8.50;;
69910;SDS011;63555;49.920;17.868;2023-05-16T12:31:25;9.25;;;7.07;;
69910;SDS011;63555;49.920;17.868;2023-05-16T12:36:29;13.45;;;8.15;;
69910;SDS011;63555;49.920;17.868;2023-05-16T12:41:31;12.87;;;8.70;;
69910;SDS011;63555;49.920;17.868;2023-05-16T12:46:32;12.17;;;9.00;;
69910;SDS011;63555;49.920;17.868;2023-05-16T12:51:32;13.03;;;8.87;;
69910;SDS011;63555;49.920;17.868;2023-05-16T12:56:32;13.17;;;8.97;;
69910;SDS011;63555;49.920;17.868;2023-05-16T13:01:34;12.57;;;9.48;;
69910;SDS011;63555;49.920;17.868;2023-05-16T13:06:35;15.67;;;9.33;;
69910;SDS011;63555;49.920;17.868;2023-05-16T13:11:36;24.50;;;10.32;;
69910;SDS011;63555;49.920;17.868;2023-05-16T13:16:37;19.10;;;10.70;;
69910;SDS011;63555;49.920;17.868;2023-05-16T13:21:37;14.63;;;9.67;;
69910;SDS011;63555;49.920;17.868;2023-05-16T13:26:38;13.83;;;10.00;;
69910;SDS011;63555;49.920;17.868;2023-05-16T13:31:38;21.13;;;12.43;;
69910;SDS011;63555;49.920;17.868;2023-05-16T13:36:41;22.67;;;12.88;;
69910;SDS011;63555;49.920;17.868;2023-05-16T13:41:42;22.27;;;12.17;;
69910;SDS011;63555;49.920;17.868;2023-05-16T13:46:43;16.70;;;12.43;;
69910;SDS011;63555;49.920;17.868;2023-05-16T13:51:44;19.38;;;12.63;;
69910;SDS011;63555;49.920;17.868;2023-05-16T13:56:44;15.80;;;11.00;;
69910;SDS011;63555;49.920;17.868;2023-05-16T14:01:45;15.30;;;10.30;;
69910;SDS011;63555;49.920;17.868;2023-05-16T14:06:46;20.17;;;11.53;;
69910;SDS011;63555;49.920;17.868;2023-05-16T14:11:46;25.30;;;13.70;;
69910;SDS011;63555;49.920;17.868;2023-05-16T14:16:46;19.77;;;14.03;;
69910;SDS011;63555;49.920;17.868;2023-05-16T14:21:47;19.57;;;14.03;;
69910;SDS011;63555;49.920;17.868;2023-05-16T14:26:47;19.03;;;13.97;;
69910;SDS011;63555;49.920;17.868;2023-05-16T14:31:47;25.97;;;14.93;;
69910;SDS011;63555;49.920;17.868;2023-05-16T14:36:48;25.60;;;14.47;;
69910;SDS011;63555;49.920;17.868;2023-05-16T14:41:48;23.87;;;14.30;;
69910;SDS011;63555;49.920;17.868;2023-05-16T14:46:49;20.20;;;14.63;;
69910;SDS011;63555;49.920;17.868;2023-05-16T14:51:50;21.98;;;14.35;;
69910;SDS011;63555;49.920;17.868;2023-05-16T14:56:51;30.77;;;16.50;;
69910;SDS011;63555;49.920;17.868;2023-05-16T15:01:51;28.93;;;17.37;;
69910;SDS011;63555;49.920;17.868;2023-05-16T15:06:51;32.73;;;17.33;;
69910;SDS011;63555;49.920;17.868;2023-05-16T15:11:52;34.63;;;18.47;;
69910;SDS011;63555;49.920;17.868;2023-05-16T15:16:52;27.90;;;15.83;;
69910;SDS011;63555;49.920;17.868;2023-05-16T15:21:52;29.87;;;18.17;;
69910;SDS011;63555;49.920;17.868;2023-05-16T15:26:53;42.83;;;20.37;;
69910;SDS011;63555;49.920;17.868;2023-05-16T15:31:53;39.07;;;20.60;;
69910;SDS011;63555;49.920;17.868;2023-05-16T15:36:53;41.60;;;21.17;;
69910;SDS011;63555;49.920;17.868;2023-05-16T15:41:54;39.07;;;20.33;;
69910;SDS011;63555;49.920;17.868;2023-05-16T15:46:55;38.58;;;20.23;;
69910;SDS011;63555;49.920;17.868;2023-05-16T15:51:55;24.57;;;16.07;;
69910;SDS011;63555;49.920;17.868;2023-05-16T15:56:56;28.67;;;16.30;;
69910;SDS011;63555;49.920;17.868;2023-05-16T16:01:56;25.43;;;15.80;;
69910;SDS011;63555;49.920;17.868;2023-05-16T16:06:57;22.53;;;14.90;;
69910;SDS011;63555;49.920;17.868;2023-05-16T16:11:57;26.27;;;15.87;;
69910;SDS011;63555;49.920;17.868;2023-05-16T16:16:57;28.17;;;15.20;;
69910;SDS011;63555;49.920;17.868;2023-05-16T16:21:58;25.93;;;16.33;;
69910;SDS011;63555;49.920;17.868;2023-05-16T16:26:58;28.25;;;15.45;;
69910;SDS011;63555;49.920;17.868;2023-05-16T16:31:58;29.05;;;16.30;;
69910;SDS011;63555;49.920;17.868;2023-05-16T16:36:59;23.52;;;14.57;;
69910;SDS011;63555;49.920;17.868;2023-05-16T16:41:59;25.53;;;15.60;;
69910;SDS011;63555;49.920;17.868;2023-05-16T16:47:00;23.73;;;13.43;;
69910;SDS011;63555;49.920;17.868;2023-05-16T16:52:00;23.83;;;14.03;;
69910;SDS011;63555;49.920;17.868;2023-05-16T16:57:00;21.47;;;12.37;;
69910;SDS011;63555;49.920;17.868;2023-05-16T17:02:01;18.27;;;11.93;;
69910;SDS011;63555;49.920;17.868;2023-05-16T17:07:01;22.53;;;12.60;;
69910;SDS011;63555;49.920;17.868;2023-05-16T17:12:02;19.13;;;11.67;;
69910;SDS011;63555;49.920;17.868;2023-05-16T17:17:07;21.73;;;12.30;;
69910;SDS011;63555;49.920;17.868;2023-05-16T17:22:08;19.50;;;12.07;;
69910;SDS011;63555;49.920;17.868;2023-05-16T17:27:08;18.95;;;11.57;;
69910;SDS011;63555;49.920;17.868;2023-05-16T17:32:08;22.07;;;12.30;;
69910;SDS011;63555;49.920;17.868;2023-05-16T17:37:09;32.33;;;15.17;;
69910;SDS011;63555;49.920;17.868;2023-05-16T17:42:09;28.83;;;14.40;;
69910;SDS011;63555;49.920;17.868;2023-05-16T17:47:10;21.83;;;10.13;;
69910;SDS011;63555;49.920;17.868;2023-05-16T17:52:11;27.37;;;12.20;;
69910;SDS011;63555;49.920;17.868;2023-05-16T17:57:11;25.87;;;12.23;;
69910;SDS011;63555;49.920;17.868;2023-05-16T18:02:12;28.07;;;12.00;;
69910;SDS011;63555;49.920;17.868;2023-05-16T18:07:15;25.15;;;10.20;;
69910;SDS011;63555;49.920;17.868;2023-05-16T18:12:15;23.03;;;9.83;;
69910;SDS011;63555;49.920;17.868;2023-05-16T18:17:16;27.57;;;11.53;;
69910;SDS011;63555;49.920;17.868;2023-05-16T18:22:16;15.03;;;7.53;;
69910;SDS011;63555;49.920;17.868;2023-05-16T18:27:16;19.80;;;8.30;;
69910;SDS011;63555;49.920;17.868;2023-05-16T18:32:17;25.67;;;9.03;;
69910;SDS011;63555;49.920;17.868;2023-05-16T18:37:17;31.13;;;9.47;;
69910;SDS011;63555;49.920;17.868;2023-05-16T18:42:18;18.90;;;8.07;;
69910;SDS011;63555;49.920;17.868;2023-05-16T18:47:18;17.00;;;7.43;;
69910;SDS011;63555;49.920;17.868;2023-05-16T18:52:19;19.35;;;7.20;;
69910;SDS011;63555;49.920;17.868;2023-05-16T18:57:20;20.33;;;6.53;;
69910;SDS011;63555;49.920;17.868;2023-05-16T19:02:20;29.40;;;8.37;;
69910;SDS011;63555;49.920;17.868;2023-05-16T19:07:20;27.77;;;8.27;;
69910;SDS011;63555;49.920;17.868;2023-05-16T19:12:21;21.33;;;7.90;;
69910;SDS011;63555;49.920;17.868;2023-05-16T19:17:22;19.73;;;7.20;;
69910;SDS011;63555;49.920;17.868;2023-05-16T19:22:22;17.63;;;6.93;;
69910;SDS011;63555;49.920;17.868;2023-05-16T19:27:22;24.47;;;8.20;;
69910;SDS011;63555;49.920;17.868;2023-05-16T19:32:24;17.65;;;7.88;;
69910;SDS011;63555;49.920;17.868;2023-05-16T19:37:25;20.23;;;7.80;;
69910;SDS011;63555;49.920;17.868;2023-05-16T19:42:25;18.47;;;7.23;;
69910;SDS011;63555;49.920;17.868;2023-05-16T19:47:25;18.87;;;8.47;;
69910;SDS011;63555;49.920;17.868;2023-05-16T19:52:27;13.18;;;5.32;;
69910;SDS011;63555;49.920;17.868;2023-05-16T19:57:27;14.45;;;5.18;;
69910;SDS011;63555;49.920;17.868;2023-05-16T20:02:27;16.43;;;5.90;;
69910;SDS011;63555;49.920;17.868;2023-05-16T20:07:28;14.57;;;6.90;;
69910;SDS011;63555;49.920;17.868;2023-05-16T20:12:28;13.23;;;6.43;;
69910;SDS011;63555;49.920;17.868;2023-05-16T20:17:28;12.30;;;5.63;;
69910;SDS011;63555;49.920;17.868;2023-05-16T20:22:29;14.83;;;6.50;;
69910;SDS011;63555;49.920;17.868;2023-05-16T20:27:29;19.03;;;7.10;;
69910;SDS011;63555;49.920;17.868;2023-05-16T20:32:29;18.20;;;7.03;;
69910;SDS011;63555;49.920;17.868;2023-05-16T20:37:30;18.43;;;7.50;;
69910;SDS011;63555;49.920;17.868;2023-05-16T20:42:30;29.87;;;8.83;;
69910;SDS011;63555;49.920;17.868;2023-05-16T20:47:30;23.63;;;9.17;;
69910;SDS011;63555;49.920;17.868;2023-05-16T20:52:31;21.37;;;8.87;;
69910;SDS011;63555;49.920;17.868;2023-05-16T20:57:31;20.33;;;7.93;;
69910;SDS011;63555;49.920;17.868;2023-05-16T21:02:31;22.97;;;8.67;;
69910;SDS011;63555;49.920;17.868;2023-05-16T21:07:32;19.50;;;7.83;;
69910;SDS011;63555;49.920;17.868;2023-05-16T21:12:32;22.77;;;8.93;;
69910;SDS011;63555;49.920;17.868;2023-05-16T21:17:32;19.20;;;7.50;;
69910;SDS011;63555;49.920;17.868;2023-05-16T21:22:33;22.83;;;8.13;;
69910;SDS011;63555;49.920;17.868;2023-05-16T21:27:33;20.33;;;9.20;;
69910;SDS011;63555;49.920;17.868;2023-05-16T21:32:33;22.43;;;9.47;;
69910;SDS011;63555;49.920;17.868;2023-05-16T21:37:34;31.63;;;9.90;;
69910;SDS011;63555;49.920;17.868;2023-05-16T21:42:34;22.40;;;8.93;;
69910;SDS011;63555;49.920;17.868;2023-05-16T21:47:35;18.53;;;9.00;;
69910;SDS011;63555;49.920;17.868;2023-05-16T21:52:36;24.97;;;8.77;;
69910;SDS011;63555;49.920;17.868;2023-05-16T21:57:37;18.67;;;8.13;;
69910;SDS011;63555;49.920;17.868;2023-05-16T22:02:37;24.23;;;8.73;;
69910;SDS011;63555;49.920;17.868;2023-05-16T22:07:37;11.73;;;5.33;;
69910;SDS011;63555;49.920;17.868;2023-05-16T22:12:38;17.07;;;7.00;;
69910;SDS011;63555;49.920;17.868;2023-05-16T22:17:38;14.20;;;5.07;;
69910;SDS011;63555;49.920;17.868;2023-05-16T22:22:40;12.38;;;4.95;;
69910;SDS011;63555;49.920;17.868;2023-05-16T22:27:40;11.23;;;5.07;;
69910;SDS011;63555;49.920;17.868;2023-05-16T22:32:41;12.80;;;5.18;;
69910;SDS011;63555;49.920;17.868;2023-05-16T22:37:41;12.40;;;5.47;;
69910;SDS011;63555;49.920;17.868;2023-05-16T22:42:43;14.60;;;5.90;;
69910;SDS011;63555;49.920;17.868;2023-05-16T22:47:43;14.23;;;5.93;;
69910;SDS011;63555;49.920;17.868;2023-05-16T22:52:44;14.52;;;4.80;;
69910;SDS011;63555;49.920;17.868;2023-05-16T22:57:44;12.00;;;4.70;;
69910;SDS011;63555;49.920;17.868;2023-05-16T23:02:45;13.30;;;5.00;;
69910;SDS011;63555;49.920;17.868;2023-05-16T23:07:45;10.43;;;4.57;;
69910;SDS011;63555;49.920;17.868;2023-05-16T23:12:45;10.20;;;4.77;;
69910;SDS011;63555;49.920;17.868;2023-05-16T23:17:46;6.20;;;2.93;;
69910;SDS011;63555;49.920;17.868;2023-05-16T23:22:46;8.90;;;4.55;;
69910;SDS011;63555;49.920;17.868;2023-05-16T23:27:47;14.43;;;5.00;;
69910;SDS011;63555;49.920;17.868;2023-05-16T23:32:47;12.87;;;5.37;;
69910;SDS011;63555;49.920;17.868;2023-05-16T23:37:47;9.73;;;4.00;;
69910;SDS011;63555;49.920;17.868;2023-05-16T23:42:48;8.97;;;4.00;;
69910;SDS011;63555;49.920;17.868;2023-05-16T23:47:48;9.33;;;4.07;;
69910;SDS011;63555;49.920;17.868;2023-05-16T23:52:49;9.13;;;3.67;;
69910;SDS011;63555;49.920;17.868;2023-05-16T23:57:49;8.90;;;4.07;;
